Langenburg, Canada
Current Conditions -  °F | °C
As of 1:00 AM on Saturday 20 Dec 2014 (Local Time) from CYQV Reporting Station
Overcast Overcast  
Wind Chill: 12°   Ceiling: 500
Heat Index: 21°   Visibility: 9mi
Dew Point: 21°   Wind: 8mph
Humidity: 100%   Direction: 210°SSW
Pressure: 29.92"   Gusts: NA
Location:  50.83°N, 101.7°W
Report Text: CYQV 200700Z AUTO 21007KT 9SM OVC005 M06/M06 A2992 RMK SLP163
Loading
Personal Weather Stations






























Interactive Weather Map New forecast layout! Learn more

10-Day Weather Forecast

Advertisements
Track Severe Weather on mobile